Annis, Idaho
Current Conditions -  °F | °C
As of 4:53 PM on Monday 20 Oct 2014 (Local Time) from KRXE Reporting Station
Clear Clear  
Wind Chill: 71°   Ceiling: Unl
Heat Index: 71°   Visibility: 10mi
Dew Point: 36°   Wind: 5mph
Humidity: 28%   Direction: 220°SW
Pressure: 29.95"   Gusts: NA
Location:  43.6749°N, 111.89°W
Report Text: KRXE 202253Z AUTO 22004KT 10SM CLR 22/02 A2995 RMK AO2 SLP122 T02170022
Loading
Personal Weather Stations






























Interactive Weather Map
Tropical Storm Tracking
New forecast layout! Learn more

10-Day Weather Forecast

Advertisements
Track Severe Weather on mobile